| time (UTC) | temp C | wind direction | speed KPH | gust KPH | rain 1hr cm | rain 24hr cm | rain mn cm | humidity % | barometer mb |
| 20260902142202 | 22 | 244 | 9.7 | 16.1 | 0.00 | 0.56 | 0.03 | 50 | 1017.6 |
| 20260902141604 | 21 | 154 | 1.6 | 4.8 | 0.00 | 0.56 | 0.03 | 51 | 1017.9 |
| 20260902141103 | 21 | 262 | 6.4 | 9.7 | 0.00 | 0.56 | 0.03 | 53 | 1017.6 |
| 20260902140603 | 21 | 218 | 8.0 | 11.3 | 0.00 | 0.56 | 0.03 | 53 | 1017.9 |
| 20260902135604 | 21 | 237 | 8.0 | 11.3 | 0.00 | 0.56 | 0.03 | 55 | 1017.9 |
| 20260902135003 | 21 | 203 | 6.4 | 9.7 | 0.00 | 0.56 | 0.03 | 53 | 1017.9 |
| 20260902134504 | 21 | 240 | 11.3 | 12.9 | 0.00 | 0.56 | 0.03 | 52 | 1017.9 |
| 20260902133903 | 22 | 257 | 11.3 | 12.9 | 0.00 | 0.56 | 0.03 | 51 | 1017.9 |
| 20260902133403 | 21 | 234 | 16.1 | 16.1 | 0.00 | 0.56 | 0.03 | 52 | 1017.9 |
| 20260902132903 | 21 | 249 | 8.0 | 12.9 | 0.00 | 0.56 | 0.03 | 54 | 1017.9 |
| 20260902132402 | 22 | 252 | 9.7 | 14.5 | 0.00 | 0.56 | 0.03 | 51 | 1017.9 |
| 20260902131903 | 21 | 222 | 9.7 | 11.3 | 0.00 | 0.56 | 0.03 | 55 | 1017.9 |
| 20260902131402 | 21 | 247 | 9.7 | 12.9 | 0.00 | 0.56 | 0.03 | 54 | 1018.3 |
| 20260902130903 | 21 | 262 | 8.0 | 11.3 | 0.00 | 0.56 | 0.03 | 53 | 1017.9 |
| 20260902130403 | 21 | 236 | 9.7 | 12.9 | 0.00 | 0.56 | 0.03 | 54 | 1018.3 |
| 20260902125902 | 21 | 225 | 16.1 | 16.1 | 0.00 | 0.56 | 0.03 | 52 | 1018.3 |
| 20260902125305 | 21 | 255 | 3.2 | 4.8 | 0.00 | 0.56 | 0.03 | 53 | 1018.3 |
| 20260902124803 | 22 | 226 | 8.0 | 12.9 | 0.00 | 0.56 | 0.03 | 52 | 1018.3 |
| 20260902124303 | 21 | 178 | 12.9 | 22.5 | 0.00 | 0.56 | 0.03 | 53 | 1018.3 |
| 20260902123802 | 21 | 203 | 16.1 | 17.7 | 0.00 | 0.56 | 0.03 | 54 | 1018.6 |
| 20260902123303 | 21 | 162 | 3.2 | 9.7 | 0.00 | 0.56 | 0.03 | 55 | 1018.6 |
| 20260902122803 | 21 | 199 | 6.4 | 14.5 | 0.00 | 0.56 | 0.03 | 54 | 1018.6 |
| 20260902122202 | 21 | 216 | 12.9 | 17.7 | 0.00 | 0.56 | 0.03 | 52 | 1018.6 |
| 20260902121602 | 21 | 192 | 8.0 | 12.9 | 0.00 | 0.56 | 0.03 | 53 | 1018.6 |
| 20260902121004 | 21 | 277 | 1.6 | 9.7 | 0.00 | 0.56 | 0.03 | 55 | 1018.6 |
| 20260902120505 | 21 | 246 | 8.0 | 12.9 | 0.00 | 0.56 | 0.03 | 55 | 1018.6 |
| 20260902120003 | 20 | 257 | 4.8 | 11.3 | 0.00 | 0.56 | 0.03 | 58 | 1019.0 |
| 20260902115403 | 20 | 245 | 9.7 | 11.3 | 0.00 | 0.56 | 0.03 | 57 | 1019.0 |
| 20260902114902 | 20 | 259 | 14.5 | 16.1 | 0.00 | 0.56 | 0.03 | 57 | 1019.0 |
| 20260902114403 | 20 | 234 | 4.8 | 8.0 | 0.00 | 0.56 | 0.03 | 57 | 1019.0 |
| 20260902113803 | 20 | 254 | 4.8 | 8.0 | 0.00 | 0.56 | 0.03 | 56 | 1019.0 |
| 20260902113202 | 20 | 219 | 3.2 | 9.7 | 0.00 | 0.56 | 0.03 | 58 | 1019.0 |
| 20260902112703 | 21 | 181 | 8.0 | 11.3 | 0.00 | 0.56 | 0.03 | 55 | 1019.0 |
| 20260902112203 | 20 | 168 | 3.2 | 8.0 | 0.00 | 0.56 | 0.03 | 55 | 1019.0 |
| 20260902111702 | 20 | 224 | 4.8 | 4.8 | 0.00 | 0.56 | 0.03 | 57 | 1019.3 |
| 20260902111203 | 20 | 244 | 8.0 | 12.9 | 0.00 | 0.56 | 0.03 | 56 | 1019.0 |
| 20260902110603 | 20 | 248 | 9.7 | 11.3 | 0.00 | 0.56 | 0.03 | 56 | 1019.3 |
| 20260902105603 | 20 | 225 | 8.0 | 14.5 | 0.00 | 0.56 | 0.03 | 54 | 1019.3 |
| 20260902105103 | 20 | 242 | 8.0 | 12.9 | 0.00 | 0.56 | 0.03 | 56 | 1019.6 |
| 20260902104603 | 20 | 236 | 8.0 | 9.7 | 0.00 | 0.56 | 0.03 | 59 | 1019.3 |
| 20260902104005 | 20 | 259 | 11.3 | 12.9 | 0.00 | 0.56 | 0.03 | 59 | 1019.6 |
| 20260902103403 | 20 | 257 | 9.7 | 12.9 | 0.00 | 0.56 | 0.03 | 57 | 1019.6 |
| 20260902102902 | 20 | 255 | 11.3 | 16.1 | 0.00 | 0.56 | 0.03 | 56 | 1019.6 |
| 20260902102403 | 19 | 237 | 11.3 | 14.5 | 0.00 | 0.56 | 0.03 | 60 | 1019.6 |
| 20260902101902 | 19 | 240 | 12.9 | 14.5 | 0.00 | 0.56 | 0.03 | 61 | 1019.6 |
| 20260902101303 | 19 | 228 | 8.0 | 12.9 | 0.00 | 0.56 | 0.03 | 59 | 1019.6 |
| 20260902100803 | 19 | 214 | 8.0 | 9.7 | 0.00 | 0.56 | 0.03 | 61 | 1019.6 |
| 20260902100302 | 19 | 233 | 11.3 | 12.9 | 0.00 | 0.56 | 0.03 | 62 | 1019.6 |
| 20260902095803 | 19 | 247 | 11.3 | 16.1 | 0.00 | 0.56 | 0.03 | 61 | 1019.6 |
| 20260902095306 | 19 | 237 | 12.9 | 14.5 | 0.00 | 0.56 | 0.03 | 62 | 1019.6 |
| 20260902094802 | 19 | 252 | 8.0 | 11.3 | 0.00 | 0.56 | 0.03 | 65 | 1019.6 |
| 20260902094203 | 19 | 232 | 9.7 | 11.3 | 0.00 | 0.56 | 0.03 | 65 | 1019.6 |
| 20260902093704 | 19 | 234 | 6.4 | 16.1 | 0.00 | 0.56 | 0.03 | 63 | 1019.6 |
| 20260902093203 | 20 | 244 | 11.3 | 16.1 | 0.00 | 0.56 | 0.03 | 62 | 1019.6 |
| 20260902092603 | 19 | 226 | 3.2 | 9.7 | 0.00 | 0.56 | 0.03 | 69 | 1019.6 |
| 20260902092103 | 19 | 252 | 3.2 | 11.3 | 0.00 | 0.56 | 0.03 | 70 | 1019.6 |
| 20260902091603 | 18 | 208 | 9.7 | 16.1 | 0.00 | 0.56 | 0.03 | 71 | 1019.6 |
| 20260902091102 | 18 | 256 | 6.4 | 12.9 | 0.00 | 0.56 | 0.03 | 73 | 1019.6 |
| 20260902090603 | 18 | 203 | 12.9 | 16.1 | 0.00 | 0.56 | 0.03 | 72 | 1019.6 |
| 20260902090005 | 18 | 193 | 9.7 | 12.9 | 0.00 | 0.56 | 0.03 | 73 | 1019.6 |
| 20260902085504 | 18 | 222 | 12.9 | 14.5 | 0.00 | 0.56 | 0.03 | 75 | 1020.0 |
| 20260902084902 | 17 | 218 | 11.3 | 14.5 | 0.00 | 0.56 | 0.03 | 76 | 1020.0 |
| 20260902084402 | 17 | 194 | 8.0 | 11.3 | 0.00 | 0.56 | 0.03 | 75 | 1020.0 |
| 20260902083803 | 17 | 208 | 6.4 | 12.9 | 0.00 | 0.56 | 0.03 | 76 | 1020.0 |
| 20260902083303 | 17 | 221 | 9.7 | 12.9 | 0.00 | 0.56 | 0.03 | 76 | 1020.0 |
| 20260902082703 | 17 | 170 | 4.8 | 11.3 | 0.00 | 0.56 | 0.03 | 78 | 1020.0 |
| 20260902082203 | 17 | 200 | 6.4 | 11.3 | 0.00 | 0.56 | 0.03 | 77 | 1020.0 |
| 20260902081703 | 16 | 205 | 6.4 | 9.7 | 0.00 | 0.56 | 0.03 | 77 | 1020.0 |
| 20260902081103 | 16 | 184 | 8.0 | 9.7 | 0.00 | 0.56 | 0.03 | 80 | 1020.0 |
| 20260902080603 | 16 | 161 | 4.8 | 9.7 | 0.00 | 0.56 | 0.03 | 83 | 1020.0 |
| 20260902075403 | 16 | 195 | 1.6 | 4.8 | 0.00 | 0.56 | 0.03 | 86 | 1020.0 |
| 20260902074902 | 15 | 183 | 3.2 | 4.8 | 0.00 | 0.56 | 0.03 | 85 | 1020.0 |
| 20260902074402 | 15 | 169 | 4.8 | 4.8 | 0.00 | 0.56 | 0.03 | 86 | 1019.6 |
| 20260902073803 | 15 | 158 | 3.2 | 3.2 | 0.00 | 0.56 | 0.03 | 86 | 1020.0 |
| 20260902073302 | 15 | 153 | 3.2 | 4.8 | 0.00 | 0.56 | 0.03 | 87 | 1019.6 |
| 20260902072803 | 15 | 164 | 3.2 | 4.8 | 0.00 | 0.56 | 0.03 | 87 | 1020.0 |
| 20260902072308 | 15 | 185 | 1.6 | 3.2 | 0.00 | 0.56 | 0.03 | 87 | 1020.0 |
| 20260902071803 | 15 | 198 | 4.8 | 8.0 | 0.00 | 0.56 | 0.03 | 87 | 1020.0 |
| 20260902071303 | 15 | 175 | 4.8 | 8.0 | 0.00 | 0.56 | 0.03 | 88 | 1020.0 |
| 20260902070803 | 15 | 165 | 4.8 | 4.8 | 0.00 | 0.56 | 0.03 | 90 | 1019.6 |
| 20260902070303 | 15 | 182 | 3.2 | 3.2 | 0.00 | 0.56 | 0.03 | 91 | 1020.0 |
| 20260902065803 | 14 | 194 | 4.8 | 8.0 | 0.00 | 0.56 | 0.03 | 91 | 1020.0 |
| 20260902065203 | 15 | 209 | 3.2 | 4.8 | 0.00 | 0.56 | 0.03 | 92 | 1020.0 |
| 20260902064704 | 14 | 182 | 4.8 | 4.8 | 0.00 | 0.56 | 0.03 | 93 | 1020.0 |
| 20260902064202 | 14 | 170 | 3.2 | 8.0 | 0.00 | 0.56 | 0.03 | 93 | 1020.0 |
| 20260902063603 | 13 | 155 | 4.8 | 8.0 | 0.00 | 0.56 | 0.03 | 94 | 1020.0 |
| 20260902063102 | 13 | 163 | 4.8 | 4.8 | 0.00 | 0.56 | 0.03 | 95 | 1020.0 |
| 20260902062602 | 13 | 208 | 3.2 | 4.8 | 0.00 | 0.56 | 0.03 | 95 | 1020.0 |
| 20260902062102 | 13 | 171 | 3.2 | 4.8 | 0.00 | 0.56 | 0.03 | 95 | 1020.0 |
| 20260902061102 | 12 | 177 | 4.8 | 8.0 | 0.00 | 0.56 | 0.03 | 95 | 1020.0 |
| 20260902060603 | 12 | 154 | 6.4 | 8.0 | 0.00 | 0.56 | 0.03 | 96 | 1020.0 |
| 20260902055603 | 12 | 146 | 3.2 | 4.8 | 0.00 | 0.56 | 0.03 | 96 | 1020.3 |
| 20260902055003 | 12 | 147 | 3.2 | 4.8 | 0.00 | 0.56 | 0.03 | 96 | 1020.0 |
| 20260902054502 | 12 | 224 | 3.2 | 3.2 | 0.00 | 0.56 | 0.03 | 96 | 1020.3 |
| 20260902053903 | 12 | 226 | 0.0 | 1.6 | 0.00 | 0.56 | 0.03 | 95 | 1020.3 |
| 20260902053402 | 12 | 226 | 0.0 | 0.0 | 0.00 | 0.56 | 0.03 | 96 | 1020.0 |
| 20260902052902 | 12 | 226 | 0.0 | 0.0 | 0.00 | 0.56 | 0.03 | 96 | 1020.3 |
| 20260902052306 | 12 | 226 | 0.0 | 0.0 | 0.00 | 0.56 | 0.03 | 96 | 1020.0 |
| 20260902051803 | 11 | 226 | 0.0 | 0.0 | 0.00 | 0.56 | 0.03 | 96 | 1020.0 |
| 20260902051302 | 11 | 226 | 0.0 | 0.0 | 0.00 | 0.56 | 0.03 | 95 | 1020.0 |
| 20260902050802 | 11 | 226 | 0.0 | 0.0 | 0.00 | 0.56 | 0.03 | 95 | 1020.3 |
| 20260902050303 | 11 | 226 | 0.0 | 0.0 | 0.00 | 0.56 | 0.03 | 95 | 1020.0 |
| 20260902045803 | 11 | 226 | 0.0 | 0.0 | 0.00 | 0.56 | 0.03 | 95 | 1020.0 |
| 20260902045306 | 11 | 226 | 0.0 | 0.0 | 0.00 | 0.56 | 0.03 | 96 | 1020.0 |
| 20260902044703 | 11 | 226 | 0.0 | 0.0 | 0.00 | 0.56 | 0.03 | 95 | 1020.0 |
| 20260902044202 | 11 | 226 | 0.0 | 0.0 | 0.00 | 0.56 | 0.03 | 95 | 1020.0 |
| 20260902043703 | 12 | 226 | 0.0 | 0.0 | 0.00 | 0.56 | 0.03 | 95 | 1020.0 |
| 20260902043203 | 11 | 226 | 1.6 | 1.6 | 0.00 | 0.56 | 0.03 | 95 | 1020.3 |
| 20260902042704 | 11 | 226 | 1.6 | 3.2 | 0.00 | 0.56 | 0.03 | 95 | 1020.3 |
| 20260902042202 | 11 | 227 | 3.2 | 3.2 | 0.00 | 0.56 | 0.03 | 95 | 1020.3 |
| 20260902041702 | 11 | 227 | 3.2 | 3.2 | 0.00 | 0.56 | 0.03 | 95 | 1020.3 |
| 20260902041202 | 11 | 227 | 3.2 | 3.2 | 0.00 | 0.56 | 0.03 | 95 | 1020.7 |
| 20260902040702 | 11 | 227 | 3.2 | 3.2 | 0.00 | 0.56 | 0.03 | 95 | 1020.3 |
| 20260902040103 | 11 | 226 | 4.8 | 4.8 | 0.00 | 0.56 | 0.03 | 95 | 1020.3 |
| 20260902035603 | 11 | 223 | 4.8 | 4.8 | 0.00 | 0.56 | 0.03 | 95 | 1020.3 |
| 20260902035103 | 11 | 244 | 3.2 | 4.8 | 0.00 | 0.56 | 0.03 | 95 | 1020.3 |
| 20260902034003 | 11 | 254 | 3.2 | 4.8 | 0.00 | 0.56 | 0.03 | 95 | 1020.3 |
| 20260902033403 | 11 | 256 | 4.8 | 8.0 | 0.00 | 0.56 | 0.03 | 95 | 1020.3 |
| 20260902032902 | 11 | 253 | 4.8 | 4.8 | 0.00 | 0.56 | 0.03 | 95 | 1020.3 |
| 20260902032402 | 11 | 215 | 0.0 | 0.0 | 0.00 | 0.56 | 0.03 | 94 | 1020.0 |
| 20260902031903 | 11 | 215 | 1.6 | 1.6 | 0.00 | 0.56 | 0.03 | 95 | 1019.6 |
| 20260902031402 | 11 | 215 | 0.0 | 0.0 | 0.00 | 0.56 | 0.03 | 94 | 1019.6 |
| 20260902030902 | 11 | 214 | 0.0 | 0.0 | 0.00 | 0.56 | 0.03 | 94 | 1020.0 |
| 20260902030403 | 11 | 214 | 1.6 | 3.2 | 0.00 | 0.56 | 0.03 | 94 | 1020.0 |
| 20260902025903 | 11 | 214 | 3.2 | 3.2 | 0.00 | 0.56 | 0.03 | 94 | 1020.0 |
| 20260902025306 | 11 | 214 | 1.6 | 3.2 | 0.00 | 0.56 | 0.03 | 94 | 1019.6 |
| 20260902024802 | 12 | 214 | 1.6 | 3.2 | 0.00 | 0.56 | 0.03 | 94 | 1019.6 |
| 20260902024302 | 12 | 214 | 1.6 | 1.6 | 0.00 | 0.56 | 0.03 | 94 | 1019.6 |
| 20260902023802 | 11 | 214 | 1.6 | 3.2 | 0.00 | 0.56 | 0.03 | 94 | 1019.6 |
| 20260902023202 | 12 | 214 | 1.6 | 3.2 | 0.03 | 0.56 | 0.03 | 94 | 1019.6 |
| 20260902022703 | 12 | 222 | 1.6 | 3.2 | 0.03 | 0.56 | 0.03 | 94 | 1019.6 |
| 20260902022104 | 12 | 223 | 1.6 | 3.2 | 0.03 | 0.56 | 0.03 | 94 | 1019.6 |
| 20260902021603 | 12 | 225 | 0.0 | 1.6 | 0.03 | 0.56 | 0.03 | 93 | 1019.6 |
| 20260902021103 | 12 | 225 | 3.2 | 3.2 | 0.03 | 0.56 | 0.03 | 93 | 1020.0 |
| 20260902020603 | 12 | 226 | 0.0 | 0.0 | 0.03 | 0.56 | 0.03 | 93 | 1019.6 |
| 20260902020103 | 12 | 226 | 0.0 | 0.0 | 0.03 | 0.56 | 0.03 | 93 | 1019.6 |
| 20260902015504 | 12 | 226 | 0.0 | 0.0 | 0.03 | 0.56 | 0.03 | 92 | 1019.6 |
| 20260902015003 | 12 | 225 | 0.0 | 1.6 | 0.03 | 0.56 | 0.03 | 92 | 1020.0 |
| 20260902014403 | 12 | 225 | 1.6 | 3.2 | 0.03 | 0.56 | 0.03 | 93 | 1019.6 |
| 20260902013903 | 12 | 228 | 3.2 | 3.2 | 0.03 | 0.56 | 0.03 | 92 | 1020.0 |
| 20260902013302 | 12 | 228 | 4.8 | 4.8 | 0.00 | 0.53 | 0.00 | 92 | 1020.3 |
| 20260902012803 | 12 | 232 | 4.8 | 4.8 | 0.00 | 0.53 | 0.00 | 91 | 1020.0 |
| 20260902012308 | 12 | 246 | 3.2 | 3.2 | 0.00 | 0.53 | 0.00 | 91 | 1019.6 |
| 20260902011703 | 13 | 249 | 4.8 | 4.8 | 0.00 | 0.53 | 0.00 | 91 | 1019.6 |
| 20260902011202 | 13 | 248 | 3.2 | 4.8 | 0.00 | 0.53 | 0.00 | 90 | 1019.6 |
| 20260902010603 | 13 | 256 | 4.8 | 4.8 | 0.00 | 0.53 | 0.00 | 90 | 1019.6 |
| 20260902005603 | 13 | 267 | 4.8 | 4.8 | 0.00 | 0.53 | 0.00 | 90 | 1019.6 |
| 20260902005103 | 13 | 274 | 4.8 | 8.0 | 0.00 | 0.53 | 0.00 | 90 | 1019.6 |
| 20260902004602 | 13 | 281 | 6.4 | 9.7 | 0.00 | 0.53 | 0.00 | 90 | 1019.6 |
| 20260902004102 | 13 | 279 | 4.8 | 8.0 | 0.00 | 0.53 | 0.00 | 90 | 1019.6 |
| 20260902003603 | 13 | 271 | 4.8 | 8.0 | 0.00 | 0.53 | 0.00 | 90 | 1020.0 |
| 20260902003102 | 13 | 264 | 4.8 | 4.8 | 0.00 | 0.53 | 0.00 | 89 | 1020.0 |
| 20260902002502 | 13 | 258 | 6.4 | 9.7 | 0.00 | 0.53 | 0.00 | 89 | 1019.6 |
| 20260902002003 | 14 | 256 | 6.4 | 8.0 | 0.00 | 0.53 | 0.00 | 89 | 1019.6 |
| 20260902001504 | 13 | 264 | 8.0 | 9.7 | 0.00 | 0.53 | 0.00 | 90 | 1020.0 |
| 20260902001004 | 13 | 243 | 4.8 | 4.8 | 0.00 | 0.53 | 0.00 | 90 | 1019.6 |
| 20260902000403 | 13 | 232 | 4.8 | 9.7 | 0.00 | 0.53 | 0.00 | 90 | 1019.6 |
| 20260901235902 | 13 | 239 | 6.4 | 9.7 | 0.00 | 0.53 | 0.00 | 91 | 1019.6 |
| 20260901235307 | 13 | 242 | 4.8 | 4.8 | 0.00 | 0.53 | 0.00 | 90 | 1019.6 |
| 20260901234703 | 13 | 250 | 4.8 | 8.0 | 0.00 | 0.53 | 0.00 | 91 | 1019.6 |
| 20260901234202 | 13 | 244 | 4.8 | 4.8 | 0.00 | 0.53 | 0.00 | 90 | 1019.3 |
| 20260901233704 | 13 | 244 | 1.6 | 4.8 | 0.00 | 0.53 | 0.00 | 90 | 1019.3 |
| 20260901233203 | 13 | 240 | 3.2 | 4.8 | 0.00 | 0.53 | 0.00 | 89 | 1019.3 |
| 20260901232702 | 13 | 240 | 4.8 | 4.8 | 0.00 | 0.53 | 0.00 | 89 | 1019.3 |
| 20260901232103 | 13 | 235 | 4.8 | 4.8 | 0.00 | 0.53 | 0.00 | 88 | 1019.6 |
| 20260901231402 | 14 | 242 | 3.2 | 4.8 | 0.00 | 0.53 | 0.00 | 88 | 1019.6 |
| 20260901230902 | 14 | 254 | 3.2 | 8.0 | 0.00 | 0.53 | 0.00 | 87 | 1019.3 |
| 20260901230402 | 15 | 249 | 4.8 | 8.0 | 0.00 | 0.53 | 0.00 | 86 | 1019.3 |
| 20260901225903 | 15 | 256 | 6.4 | 8.0 | 0.00 | 0.53 | 0.00 | 86 | 1019.6 |
| 20260901225306 | 15 | 269 | 6.4 | 9.7 | 0.00 | 0.53 | 0.00 | 86 | 1019.6 |
| 20260901224803 | 15 | 268 | 6.4 | 8.0 | 0.00 | 0.53 | 0.00 | 85 | 1019.3 |
| 20260901224203 | 15 | 261 | 8.0 | 11.3 | 0.00 | 0.53 | 0.00 | 85 | 1019.3 |
| 20260901223702 | 15 | 269 | 4.8 | 8.0 | 0.00 | 0.53 | 0.00 | 85 | 1019.3 |
| 20260901223202 | 15 | 265 | 4.8 | 4.8 | 0.00 | 0.53 | 0.00 | 85 | 1019.3 |
| 20260901222703 | 15 | 253 | 4.8 | 9.7 | 0.00 | 0.53 | 0.00 | 86 | 1019.6 |
| 20260901222203 | 15 | 252 | 4.8 | 9.7 | 0.00 | 0.53 | 0.00 | 86 | 1019.3 |
| 20260901221603 | 15 | 241 | 6.4 | 8.0 | 0.00 | 0.53 | 0.00 | 86 | 1019.6 |
| 20260901221103 | 15 | 255 | 6.4 | 9.7 | 0.00 | 0.53 | 0.00 | 87 | 1019.3 |
| 20260901220603 | 15 | 262 | 6.4 | 8.0 | 0.00 | 0.53 | 0.00 | 87 | 1019.6 |
| 20260901215603 | 15 | 253 | 6.4 | 9.7 | 0.00 | 0.53 | 0.53 | 89 | 1019.3 |
| 20260901215004 | 15 | 245 | 6.4 | 9.7 | 0.00 | 0.53 | 0.53 | 90 | 1019.6 |
| 20260901214504 | 15 | 266 | 1.6 | 11.3 | 0.00 | 0.53 | 0.53 | 89 | 1019.3 |
| 20260901214004 | 15 | 234 | 4.8 | 8.0 | 0.00 | 0.53 | 0.53 | 90 | 1019.3 |
| 20260901213403 | 15 | 234 | 6.4 | 8.0 | 0.00 | 0.53 | 0.53 | 90 | 1019.3 |
| 20260901212902 | 15 | 221 | 4.8 | 8.0 | 0.00 | 0.53 | 0.53 | 89 | 1019.0 |
| 20260901212306 | 15 | 234 | 3.2 | 3.2 | 0.00 | 0.53 | 0.53 | 88 | 1019.0 |
| 20260901211803 | 15 | 249 | 4.8 | 4.8 | 0.00 | 0.53 | 0.53 | 88 | 1019.0 |
| 20260901211203 | 15 | 255 | 4.8 | 4.8 | 0.00 | 0.53 | 0.53 | 87 | 1019.3 |
| 20260901210703 | 16 | 239 | 4.8 | 8.0 | 0.00 | 0.53 | 0.53 | 87 | 1019.0 |
| 20260901210202 | 15 | 231 | 6.4 | 8.0 | 0.00 | 0.53 | 0.53 | 86 | 1019.3 |
| 20260901205702 | 16 | 232 | 4.8 | 8.0 | 0.00 | 0.53 | 0.53 | 85 | 1019.3 |
| 20260901205203 | 16 | 237 | 4.8 | 4.8 | 0.00 | 0.53 | 0.53 | 84 | 1019.3 |
| 20260901204603 | 16 | 239 | 4.8 | 8.0 | 0.00 | 0.53 | 0.53 | 81 | 1019.3 |
| 20260901204005 | 16 | 264 | 8.0 | 9.7 | 0.00 | 0.53 | 0.53 | 80 | 1019.0 |
| 20260901203504 | 16 | 271 | 6.4 | 9.7 | 0.00 | 0.53 | 0.53 | 80 | 1019.0 |
| 20260901202904 | 16 | 271 | 9.7 | 12.9 | 0.00 | 0.53 | 0.53 | 80 | 1019.3 |
| 20260901202403 | 16 | 259 | 8.0 | 11.3 | 0.00 | 0.53 | 0.53 | 80 | 1019.3 |
| 20260901201903 | 16 | 261 | 8.0 | 11.3 | 0.00 | 0.53 | 0.53 | 80 | 1019.0 |
| 20260901201403 | 16 | 259 | 8.0 | 9.7 | 0.00 | 0.53 | 0.53 | 81 | 1019.0 |
| 20260901200803 | 16 | 262 | 8.0 | 9.7 | 0.00 | 0.53 | 0.53 | 83 | 1019.0 |
| 20260901200303 | 16 | 258 | 6.4 | 8.0 | 0.00 | 0.53 | 0.53 | 82 | 1019.0 |
| 20260901195803 | 16 | 255 | 6.4 | 9.7 | 0.00 | 0.53 | 0.53 | 82 | 1019.0 |
| 20260901195306 | 16 | 262 | 8.0 | 11.3 | 0.00 | 0.53 | 0.53 | 81 | 1018.6 |
| 20260901194804 | 17 | 256 | 9.7 | 11.3 | 0.00 | 0.53 | 0.53 | 81 | 1019.0 |
| 20260901194304 | 17 | 260 | 8.0 | 9.7 | 0.00 | 0.53 | 0.53 | 80 | 1019.0 |
| 20260901193804 | 17 | 259 | 8.0 | 9.7 | 0.00 | 0.53 | 0.53 | 82 | 1019.0 |
| 20260901193304 | 17 | 240 | 6.4 | 9.7 | 0.00 | 0.53 | 0.53 | 82 | 1019.0 |
| 20260901192803 | 17 | 248 | 6.4 | 8.0 | 0.00 | 0.53 | 0.53 | 81 | 1019.0 |
| 20260901192306 | 17 | 254 | 8.0 | 9.7 | 0.00 | 0.53 | 0.53 | 81 | 1019.0 |
| 20260901191803 | 17 | 253 | 8.0 | 9.7 | 0.00 | 0.53 | 0.53 | 80 | 1019.0 |
| 20260901191303 | 17 | 276 | 8.0 | 11.3 | 0.00 | 0.53 | 0.53 | 80 | 1018.6 |
| 20260901190802 | 17 | 267 | 8.0 | 11.3 | 0.00 | 0.53 | 0.53 | 81 | 1018.6 |
| 20260901190303 | 17 | 255 | 6.4 | 9.7 | 0.00 | 0.53 | 0.53 | 84 | 1018.6 |
| 20260901185705 | 16 | 266 | 9.7 | 11.3 | 0.00 | 0.53 | 0.53 | 86 | 1018.6 |
| 20260901184702 | 16 | 254 | 4.8 | 4.8 | 0.00 | 0.53 | 0.53 | 88 | 1018.6 |
| 20260901184203 | 16 | 237 | 6.4 | 8.0 | 0.00 | 0.53 | 0.53 | 88 | 1018.6 |
| 20260901183703 | 16 | 235 | 4.8 | 11.3 | 0.00 | 0.53 | 0.53 | 88 | 1018.3 |
| 20260901183102 | 16 | 258 | 6.4 | 9.7 | 0.00 | 0.53 | 0.53 | 88 | 1018.3 |
| 20260901182504 | 16 | 246 | 8.0 | 12.9 | 0.00 | 0.53 | 0.53 | 89 | 1018.3 |
| 20260901181502 | 16 | 255 | 3.2 | 4.8 | 0.00 | 0.53 | 0.53 | 89 | 1018.3 |
| 20260901181003 | 16 | 238 | 3.2 | 4.8 | 0.08 | 0.53 | 0.53 | 89 | 1018.3 |
| 20260901180403 | 16 | 231 | 4.8 | 4.8 | 0.15 | 0.53 | 0.53 | 88 | 1018.6 |
| 20260901175803 | 16 | 239 | 6.4 | 9.7 | 0.20 | 0.66 | 0.53 | 87 | 1017.9 |
| 20260901175305 | 16 | 248 | 4.8 | 8.0 | 0.41 | 0.66 | 0.53 | 86 | 1017.9 |
| 20260901174705 | 16 | 249 | 8.0 | 9.7 | 0.46 | 0.66 | 0.53 | 85 | 1017.9 |
| 20260901174204 | 16 | 256 | 11.3 | 12.9 | 0.53 | 0.66 | 0.53 | 84 | 1017.9 |
| 20260901173603 | 16 | 264 | 9.7 | 11.3 | 0.53 | 0.66 | 0.53 | 87 | 1018.3 |
| 20260901173102 | 16 | 224 | 1.6 | 3.2 | 0.53 | 0.66 | 0.53 | 87 | 1018.3 |
| 20260901172603 | 16 | 206 | 0.0 | 0.0 | 0.53 | 0.66 | 0.53 | 87 | 1017.9 |
| 20260901172102 | 16 | 205 | 1.6 | 4.8 | 0.53 | 0.66 | 0.53 | 86 | 1017.9 |
| 20260901171504 | 16 | 226 | 9.7 | 11.3 | 0.53 | 0.66 | 0.53 | 86 | 1017.9 |
| 20260901171004 | 16 | 269 | 9.7 | 11.3 | 0.43 | 0.56 | 0.43 | 86 | 1017.9 |
| 20260901170004 | 17 | 253 | 12.9 | 17.7 | 0.25 | 0.38 | 0.25 | 84 | 1018.6 |
| 20260901165502 | 17 | 249 | 19.3 | 29.0 | 0.13 | 0.25 | 0.13 | 80 | 1017.9 |
| 20260901165003 | 21 | 262 | 25.7 | 40.2 | 0.00 | 0.13 | 0.00 | 65 | 1017.9 |
| 20260901164403 | 21 | 299 | 20.9 | 24.1 | 0.00 | 0.13 | 0.00 | 54 | 1017.3 |
| 20260901163903 | 22 | 276 | 17.7 | 24.1 | 0.00 | 0.13 | 0.00 | 54 | 1017.3 |
| 20260901163403 | 22 | 288 | 14.5 | 20.9 | 0.00 | 0.13 | 0.00 | 53 | 1017.3 |
| 20260901162903 | 22 | 273 | 9.7 | 12.9 | 0.00 | 0.13 | 0.00 | 53 | 1017.3 |
| 20260901162403 | 22 | 281 | 11.3 | 12.9 | 0.00 | 0.13 | 0.00 | 52 | 1017.3 |
| 20260901161803 | 22 | 269 | 14.5 | 16.1 | 0.00 | 0.13 | 0.00 | 52 | 1017.3 |
| 20260901161303 | 22 | 280 | 11.3 | 16.1 | 0.00 | 0.13 | 0.00 | 52 | 1017.3 |
| 20260901160803 | 22 | 276 | 16.1 | 27.4 | 0.00 | 0.13 | 0.00 | 49 | 1016.9 |
| 20260901160303 | 23 | 273 | 11.3 | 14.5 | 0.00 | 0.13 | 0.00 | 49 | 1016.9 |
| 20260901155704 | 22 | 262 | 9.7 | 17.7 | 0.00 | 0.13 | 0.00 | 50 | 1016.9 |
| 20260901155203 | 22 | 261 | 16.1 | 20.9 | 0.00 | 0.13 | 0.00 | 49 | 1016.9 |
| 20260901154703 | 22 | 277 | 20.9 | 22.5 | 0.00 | 0.13 | 0.00 | 48 | 1016.9 |
| 20260901154202 | 23 | 266 | 19.3 | 29.0 | 0.00 | 0.13 | 0.00 | 48 | 1016.9 |
| 20260901153604 | 23 | 272 | 11.3 | 16.1 | 0.00 | 0.13 | 0.00 | 49 | 1016.9 |
| 20260901153104 | 23 | 283 | 11.3 | 17.7 | 0.00 | 0.13 | 0.00 | 48 | 1016.9 |
| 20260901152603 | 22 | 268 | 14.5 | 16.1 | 0.00 | 0.13 | 0.00 | 48 | 1016.6 |
| 20260901152103 | 22 | 280 | 16.1 | 24.1 | 0.00 | 0.13 | 0.00 | 49 | 1016.9 |
| 20260901151603 | 23 | 268 | 14.5 | 17.7 | 0.00 | 0.13 | 0.00 | 50 | 1016.9 |
| 20260901150903 | 23 | 298 | 9.7 | 16.1 | 0.00 | 0.13 | 0.00 | 49 | 1016.9 |
| 20260901150404 | 22 | 294 | 17.7 | 22.5 | 0.00 | 0.13 | 0.00 | 50 | 1016.9 |
| 20260901145903 | 23 | 278 | 17.7 | 25.7 | 0.00 | 0.38 | 0.00 | 48 | 1016.6 |
| 20260901145306 | 23 | 288 | 8.0 | 16.1 | 0.00 | 0.38 | 0.00 | 49 | 1016.9 |
| 20260901144803 | 22 | 292 | 11.3 | 20.9 | 0.00 | 0.38 | 0.00 | 48 | 1016.9 |
| 20260901144303 | 23 | 273 | 14.5 | 20.9 | 0.00 | 0.38 | 0.00 | 48 | 1016.9 |
| 20260901143802 | 23 | 274 | 17.7 | 20.9 | 0.00 | 0.38 | 0.00 | 47 | 1016.9 |
| 20260901143203 | 23 | 280 | 22.5 | 25.7 | 0.00 | 0.38 | 0.00 | 48 | 1016.6 |
| 20260901142604 | 23 | 268 | 12.9 | 22.5 | 0.00 | 0.38 | 0.00 | 48 | 1016.6 |